Time;durP1;ratioP1;P1;durP2;ratioP2;P2;SDS_P1;SDS_P2;PMS_P1;PMS_P2;Temp;Humidity;BMP_temperature;BMP_pressure;BME280_temperature;BME280_humidity;BME280_pressure;Samples;Min_cycle;Max_cycle;Signal;HPM_P1;HPM_P2
2021/10/07 00:02:02;;;;;;;8.93;2.95;;;;;;;;;;4987237;28;20105;-41
2021/10/07 00:04:28;;;;;;;11.65;2.65;;;;;;;;;;4990301;28;20032;-45
2021/10/07 00:06:54;;;;;;;8.40;3.60;;;;;;;;;;4989353;28;20023;-42
2021/10/07 00:09:19;;;;;;;8.15;3.35;;;;;;;;;;4992474;28;20030;-42
2021/10/07 00:11:45;;;;;;;9.23;3.70;;;;;;;;;;4992893;28;20017;-43
2021/10/07 00:14:10;;;;;;;8.50;3.40;;;;;;;;;;4989771;28;20685;-44
2021/10/07 00:16:35;;;;;;;6.80;3.55;;;;;;;;;;4986370;28;20598;-41
2021/10/07 00:19:01;;;;;;;7.68;2.83;;;;;;;;;;4985900;28;20517;-42
2021/10/07 00:21:26;;;;;;;7.60;3.08;;;;;;;;;;4992178;28;20506;-43
2021/10/07 00:24:11;;;;;;;6.72;3.55;;;;;;;;;;4988865;28;20049;-49
2021/10/07 00:26:37;;;;;;;22.08;3.35;;;;;;;;;;4986196;28;20054;-41
2021/10/07 00:31:47;;;;;;;;;;;;;;;;;;4986820;28;20631;-44
2021/10/07 00:34:22;;;;;;;7.90;2.25;;;;;;;;;;4990761;28;19940;-42
2021/10/07 00:39:21;;;;;;;10.48;3.33;;;;;;;;;;4987402;28;20030;-47
2021/10/07 00:41:47;;;;;;;7.88;3.58;;;;;;;;;;4989865;28;20390;-41
2021/10/07 00:44:12;;;;;;;4.65;3.03;;;;;;;;;;4987686;28;20054;-43
2021/10/07 00:46:47;;;;;;;7.53;3.20;;;;;;;;;;4988246;28;20033;-42
2021/10/07 00:49:13;;;;;;;6.03;2.38;;;;;;;;;;4986874;28;20070;-40
2021/10/07 00:51:38;;;;;;;10.00;3.00;;;;;;;;;;4985211;28;20027;-43
2021/10/07 00:54:03;;;;;;;9.90;2.85;;;;;;;;;;4985547;28;20223;-44
2021/10/07 00:56:29;;;;;;;10.40;4.80;;;;;;;;;;4989836;28;20523;-45
2021/10/07 00:58:54;;;;;;;8.35;3.60;;;;;;;;;;4980322;28;20034;-44
2021/10/07 01:01:20;;;;;;;9.35;3.67;;;;;;;;;;4983047;28;20041;-42
2021/10/07 01:03:45;;;;;;;7.03;3.38;;;;;;;;;;4988964;28;20054;-43
2021/10/07 01:06:10;;;;;;;7.50;2.53;;;;;;;;;;4984151;28;20118;-40
2021/10/07 01:08:36;;;;;;;7.18;2.97;;;;;;;;;;4989058;28;20025;-44
2021/10/07 01:11:01;;;;;;;8.48;2.50;;;;;;;;;;4984335;28;20095;-42
2021/10/07 01:13:26;;;;;;;7.15;3.05;;;;;;;;;;4984866;28;20475;-43
2021/10/07 01:15:52;;;;;;;11.52;3.95;;;;;;;;;;4989779;28;20679;-44
2021/10/07 01:18:17;;;;;;;4.90;2.03;;;;;;;;;;4986083;28;20466;-45
2021/10/07 01:20:42;;;;;;;9.18;4.95;;;;;;;;;;4989254;28;20034;-40
2021/10/07 01:23:08;;;;;;;8.57;4.72;;;;;;;;;;4985254;28;20432;-40
2021/10/07 01:25:34;;;;;;;5.57;3.33;;;;;;;;;;4989107;28;20022;-40
2021/10/07 01:28:00;;;;;;;5.72;2.45;;;;;;;;;;4986317;28;20035;-41
2021/10/07 01:30:25;;;;;;;16.80;4.43;;;;;;;;;;4983534;28;20015;-43
2021/10/07 01:32:54;;;;;;;7.88;3.70;;;;;;;;;;4985132;28;20090;-41
2021/10/07 01:35:19;;;;;;;8.50;2.97;;;;;;;;;;4984518;28;20058;-41
2021/10/07 01:37:44;;;;;;;7.90;2.70;;;;;;;;;;4984254;28;20694;-40
2021/10/07 01:40:11;;;;;;;7.65;2.05;;;;;;;;;;4984447;28;20026;-41
2021/10/07 01:42:38;;;;;;;5.82;2.40;;;;;;;;;;4984436;28;20032;-41
2021/10/07 01:45:03;;;;;;;6.15;2.33;;;;;;;;;;4981505;28;20053;-41
2021/10/07 01:47:29;;;;;;;3.95;1.42;;;;;;;;;;4979338;28;20031;-41
2021/10/07 01:49:54;;;;;;;10.68;2.75;;;;;;;;;;4987820;28;20053;-46
2021/10/07 01:52:19;;;;;;;11.02;2.10;;;;;;;;;;4989525;28;20034;-41
2021/10/07 01:54:44;;;;;;;8.10;3.63;;;;;;;;;;4988488;28;20026;-42
2021/10/07 01:57:10;;;;;;;6.38;2.17;;;;;;;;;;4986733;28;20049;-44
2021/10/07 01:59:35;;;;;;;2.90;1.15;;;;;;;;;;4988207;28;20487;-45
2021/10/07 02:02:00;;;;;;;11.23;2.60;;;;;;;;;;4984437;28;20037;-40
2021/10/07 02:04:26;;;;;;;7.00;1.67;;;;;;;;;;4986434;28;20031;-45
2021/10/07 02:06:51;;;;;;;12.60;2.60;;;;;;;;;;4987832;28;20127;-41
2021/10/07 02:09:16;;;;;;;12.45;2.65;;;;;;;;;;4989116;28;20115;-41
2021/10/07 02:11:42;;;;;;;6.88;2.88;;;;;;;;;;4991136;28;20513;-43
2021/10/07 02:14:07;;;;;;;10.15;2.85;;;;;;;;;;4990943;28;20036;-41
2021/10/07 02:16:33;;;;;;;9.60;3.00;;;;;;;;;;4993412;28;20030;-44
2021/10/07 02:18:58;;;;;;;6.18;2.60;;;;;;;;;;4987917;28;20022;-46
2021/10/07 02:21:24;;;;;;;8.98;1.75;;;;;;;;;;4991843;28;20036;-41
2021/10/07 02:23:49;;;;;;;10.18;3.70;;;;;;;;;;4989678;28;20502;-43
2021/10/07 02:26:15;;;;;;;3.85;1.85;;;;;;;;;;4990090;28;20123;-45
2021/10/07 02:28:40;;;;;;;11.82;2.67;;;;;;;;;;4987769;28;20108;-40
2021/10/07 02:31:05;;;;;;;11.70;2.95;;;;;;;;;;4991153;28;20419;-40
2021/10/07 02:33:31;;;;;;;11.50;4.55;;;;;;;;;;4987164;28;20483;-40
2021/10/07 02:35:56;;;;;;;7.80;3.92;;;;;;;;;;4989319;28;20033;-40
2021/10/07 02:38:21;;;;;;;12.10;3.47;;;;;;;;;;4990693;28;20515;-40
2021/10/07 02:40:46;;;;;;;6.22;2.20;;;;;;;;;;4989954;28;20034;-40
2021/10/07 02:43:12;;;;;;;7.50;3.35;;;;;;;;;;4989493;28;20050;-42
2021/10/07 02:45:37;;;;;;;6.38;2.65;;;;;;;;;;4989417;28;20517;-39
2021/10/07 02:48:03;;;;;;;7.88;1.65;;;;;;;;;;4988637;28;20018;-41
2021/10/07 02:50:29;;;;;;;12.02;2.25;;;;;;;;;;4990077;28;20015;-40
2021/10/07 02:52:55;;;;;;;7.75;2.55;;;;;;;;;;4986762;28;20570;-41
2021/10/07 02:55:20;;;;;;;12.85;2.00;;;;;;;;;;4988162;28;20564;-41
2021/10/07 02:57:46;;;;;;;4.25;1.55;;;;;;;;;;4982545;28;20400;-40
2021/10/07 03:00:13;;;;;;;2.78;1.67;;;;;;;;;;4989919;28;20026;-43
2021/10/07 03:02:38;;;;;;;4.50;1.98;;;;;;;;;;4987118;28;20022;-43
2021/10/07 03:05:03;;;;;;;2.55;0.85;;;;;;;;;;4984998;28;20034;-40
2021/10/07 03:07:29;;;;;;;5.88;2.40;;;;;;;;;;4989796;28;20546;-42
2021/10/07 03:09:54;;;;;;;7.30;2.90;;;;;;;;;;4987390;28;20076;-40
2021/10/07 03:12:19;;;;;;;7.32;2.92;;;;;;;;;;4989191;28;20053;-41
2021/10/07 03:14:45;;;;;;;5.28;1.65;;;;;;;;;;4988360;28;20014;-44
2021/10/07 03:17:11;;;;;;;7.20;2.00;;;;;;;;;;4992331;28;20571;-41
2021/10/07 03:19:36;;;;;;;9.35;2.55;;;;;;;;;;4983949;28;20185;-40
2021/10/07 03:22:02;;;;;;;6.15;1.67;;;;;;;;;;4984954;28;20053;-39
2021/10/07 03:24:27;;;;;;;8.98;2.80;;;;;;;;;;4987311;28;20109;-41
2021/10/07 03:26:53;;;;;;;9.05;1.65;;;;;;;;;;4984465;28;20030;-42
2021/10/07 03:29:18;;;;;;;4.22;1.60;;;;;;;;;;4990347;28;20025;-41
2021/10/07 03:31:43;;;;;;;7.53;1.75;;;;;;;;;;4982618;28;20101;-43
2021/10/07 03:34:09;;;;;;;6.93;3.00;;;;;;;;;;4988063;28;20838;-43
2021/10/07 03:36:34;;;;;;;8.73;2.00;;;;;;;;;;4988068;28;20030;-44
2021/10/07 03:39:02;;;;;;;3.42;1.88;;;;;;;;;;4987537;28;20065;-44
2021/10/07 03:41:30;;;;;;;5.00;1.88;;;;;;;;;;4990942;28;20133;-44
2021/10/07 03:43:55;;;;;;;10.77;2.72;;;;;;;;;;4993331;28;20061;-40
2021/10/07 03:46:21;;;;;;;4.28;1.60;;;;;;;;;;4989060;28;20047;-41
2021/10/07 03:48:46;;;;;;;10.93;1.40;;;;;;;;;;4985488;28;20025;-41
2021/10/07 03:51:11;;;;;;;14.13;2.22;;;;;;;;;;4988135;28;20398;-44
2021/10/07 03:53:37;;;;;;;4.88;2.08;;;;;;;;;;4989450;28;20069;-41
2021/10/07 03:56:02;;;;;;;17.17;3.92;;;;;;;;;;4989395;28;20764;-42
2021/10/07 03:58:28;;;;;;;8.15;3.60;;;;;;;;;;4985468;28;20066;-42
2021/10/07 04:00:53;;;;;;;4.07;1.40;;;;;;;;;;4989677;28;20038;-43
2021/10/07 04:03:19;;;;;;;7.22;2.05;;;;;;;;;;4987419;28;20037;-41
2021/10/07 04:05:45;;;;;;;17.52;2.25;;;;;;;;;;4988799;28;20038;-42
2021/10/07 04:08:10;;;;;;;9.35;2.90;;;;;;;;;;4990216;28;20030;-41
2021/10/07 04:10:36;;;;;;;6.35;1.98;;;;;;;;;;4983925;28;20033;-41
2021/10/07 04:13:02;;;;;;;3.92;1.40;;;;;;;;;;4985974;28;20103;-41
2021/10/07 04:15:27;;;;;;;6.25;1.48;;;;;;;;;;4992723;28;20026;-43
2021/10/07 04:17:52;;;;;;;6.50;2.88;;;;;;;;;;4989068;28;20523;-41
2021/10/07 04:20:18;;;;;;;2.13;0.75;;;;;;;;;;4990526;28;20087;-43
2021/10/07 04:22:43;;;;;;;4.28;2.25;;;;;;;;;;4989030;28;20432;-43
2021/10/07 04:25:09;;;;;;;9.50;2.00;;;;;;;;;;4990992;28;20030;-43
2021/10/07 04:27:34;;;;;;;12.15;2.30;;;;;;;;;;4984980;28;20730;-42
2021/10/07 04:30:01;;;;;;;6.25;3.28;;;;;;;;;;4984968;28;20503;-40
2021/10/07 04:32:26;;;;;;;12.85;3.75;;;;;;;;;;4985127;28;20050;-42
2021/10/07 04:34:51;;;;;;;3.25;1.92;;;;;;;;;;4985174;28;20467;-41
2021/10/07 04:37:16;;;;;;;5.00;2.83;;;;;;;;;;4985419;28;20030;-41
2021/10/07 04:39:42;;;;;;;5.00;2.55;;;;;;;;;;4995374;28;20033;-44
2021/10/07 04:42:07;;;;;;;10.05;3.30;;;;;;;;;;4988857;28;20030;-44
2021/10/07 04:44:33;;;;;;;5.75;2.25;;;;;;;;;;4979738;28;20117;-44
2021/10/07 04:46:58;;;;;;;5.72;2.08;;;;;;;;;;4984421;28;20744;-42
2021/10/07 04:49:23;;;;;;;12.05;3.13;;;;;;;;;;4990730;28;20077;-44
2021/10/07 04:51:49;;;;;;;4.30;2.55;;;;;;;;;;4985905;28;20026;-41
2021/10/07 04:54:14;;;;;;;5.88;2.22;;;;;;;;;;4984303;28;20703;-43
2021/10/07 04:56:39;;;;;;;6.47;5.25;;;;;;;;;;4986071;28;20114;-43
2021/10/07 04:59:05;;;;;;;10.07;2.78;;;;;;;;;;4983595;28;20046;-47
2021/10/07 05:01:30;;;;;;;8.82;6.60;;;;;;;;;;4987286;28;20064;-45
2021/10/07 05:03:55;;;;;;;4.72;2.95;;;;;;;;;;4987512;28;20030;-42
2021/10/07 05:06:20;;;;;;;15.52;2.50;;;;;;;;;;4987357;28;20057;-42
2021/10/07 05:08:46;;;;;;;12.20;2.55;;;;;;;;;;4986822;28;20460;-42
2021/10/07 05:11:11;;;;;;;7.85;3.03;;;;;;;;;;4985999;28;20034;-47
2021/10/07 05:13:36;;;;;;;11.18;3.30;;;;;;;;;;4988612;28;20049;-44
2021/10/07 05:16:02;;;;;;;7.07;4.55;;;;;;;;;;4990971;28;20053;-44
2021/10/07 05:18:27;;;;;;;10.95;3.70;;;;;;;;;;4988261;28;20515;-44
2021/10/07 05:20:53;;;;;;;14.13;4.15;;;;;;;;;;4986571;28;20743;-47
2021/10/07 05:23:19;;;;;;;6.07;3.58;;;;;;;;;;4985015;28;20081;-44
2021/10/07 05:25:44;;;;;;;10.63;3.22;;;;;;;;;;4988825;28;20026;-41
2021/10/07 05:28:09;;;;;;;5.25;2.75;;;;;;;;;;4986133;28;20537;-44
2021/10/07 05:30:35;;;;;;;13.30;2.67;;;;;;;;;;4984390;28;20034;-42
2021/10/07 05:33:00;;;;;;;4.22;2.95;;;;;;;;;;4988597;28;20037;-41
2021/10/07 05:35:25;;;;;;;12.38;3.30;;;;;;;;;;4985427;28;20031;-45
2021/10/07 05:37:52;;;;;;;7.45;2.75;;;;;;;;;;4984617;28;20025;-46
2021/10/07 05:40:17;;;;;;;17.77;3.00;;;;;;;;;;4986929;28;20032;-43
2021/10/07 05:42:42;;;;;;;3.97;2.85;;;;;;;;;;4986324;28;20587;-45
2021/10/07 05:45:11;;;;;;;2.50;2.08;;;;;;;;;;4990983;28;20107;-44
2021/10/07 05:47:39;;;;;;;5.40;3.40;;;;;;;;;;4988500;28;20022;-39
2021/10/07 05:50:06;;;;;;;5.53;2.70;;;;;;;;;;4986708;28;20222;-43
2021/10/07 05:52:31;;;;;;;9.68;3.78;;;;;;;;;;4985873;28;20029;-40
2021/10/07 05:54:56;;;;;;;6.85;3.30;;;;;;;;;;4994778;28;20022;-42
2021/10/07 05:57:22;;;;;;;6.20;3.38;;;;;;;;;;4991080;28;20506;-39
2021/10/07 05:59:47;;;;;;;14.60;5.57;;;;;;;;;;4994744;28;20041;-42
2021/10/07 06:02:13;;;;;;;7.25;4.05;;;;;;;;;;4989750;28;20398;-40
2021/10/07 06:04:38;;;;;;;13.02;6.57;;;;;;;;;;5001616;28;20497;-38
2021/10/07 06:07:03;;;;;;;15.52;11.57;;;;;;;;;;4989347;28;20026;-41
2021/10/07 06:09:29;;;;;;;29.08;10.27;;;;;;;;;;4992878;28;20038;-40
2021/10/07 06:11:54;;;;;;;20.23;13.65;;;;;;;;;;4986893;28;20014;-42
2021/10/07 06:14:19;;;;;;;20.67;14.75;;;;;;;;;;4980343;28;20027;-40
2021/10/07 06:16:45;;;;;;;32.45;22.63;;;;;;;;;;4992100;28;20502;-45
2021/10/07 06:19:15;;;;;;;35.88;30.65;;;;;;;;;;4984677;28;20036;-43
2021/10/07 06:21:40;;;;;;;38.63;28.40;;;;;;;;;;4991805;28;20096;-40
2021/10/07 06:24:05;;;;;;;48.50;34.70;;;;;;;;;;4986300;28;20474;-40
2021/10/07 06:26:31;;;;;;;37.70;27.30;;;;;;;;;;4984989;28;20023;-40
2021/10/07 06:28:56;;;;;;;42.72;29.48;;;;;;;;;;4993494;28;20025;-40
2021/10/07 06:31:21;;;;;;;34.92;26.80;;;;;;;;;;4986802;28;20168;-41
2021/10/07 06:33:47;;;;;;;24.02;19.17;;;;;;;;;;4995584;28;20109;-41
2021/10/07 06:36:13;;;;;;;34.58;17.83;;;;;;;;;;4987605;28;20151;-40
2021/10/07 06:38:38;;;;;;;21.38;16.95;;;;;;;;;;4986938;28;20034;-42
2021/10/07 06:41:03;;;;;;;21.08;17.92;;;;;;;;;;4983156;28;20113;-42
2021/10/07 06:43:29;;;;;;;28.38;16.42;;;;;;;;;;4987934;28;20521;-40
2021/10/07 06:45:54;;;;;;;24.52;17.38;;;;;;;;;;4990445;28;20440;-40
2021/10/07 06:48:19;;;;;;;22.60;15.30;;;;;;;;;;4992366;28;20031;-39
2021/10/07 06:50:45;;;;;;;30.60;17.90;;;;;;;;;;4987343;28;20030;-39
2021/10/07 06:53:10;;;;;;;41.95;23.45;;;;;;;;;;4983480;28;20659;-40
2021/10/07 06:55:36;;;;;;;21.13;18.23;;;;;;;;;;4984770;28;20025;-39
2021/10/07 06:58:02;;;;;;;27.58;20.60;;;;;;;;;;4984933;28;20030;-40
2021/10/07 07:00:27;;;;;;;38.78;22.95;;;;;;;;;;4988508;28;20124;-40
2021/10/07 07:02:53;;;;;;;49.88;20.13;;;;;;;;;;4990339;28;20133;-40
2021/10/07 07:05:19;;;;;;;32.60;20.95;;;;;;;;;;4999616;28;20027;-41
2021/10/07 07:07:44;;;;;;;29.52;18.63;;;;;;;;;;4991015;28;20106;-41
2021/10/07 07:10:17;;;;;;;54.50;42.85;;;;;;;;;;4984374;28;20395;-41
2021/10/07 07:12:43;;;;;;;47.53;23.90;;;;;;;;;;4989332;28;20027;-42
2021/10/07 07:15:09;;;;;;;31.83;19.73;;;;;;;;;;4987534;28;20097;-42
2021/10/07 07:17:34;;;;;;;19.27;14.48;;;;;;;;;;4989360;28;20010;-40
2021/10/07 07:20:00;;;;;;;23.33;15.60;;;;;;;;;;4992130;28;20030;-51
2021/10/07 07:22:26;;;;;;;22.33;14.90;;;;;;;;;;4991804;28;20750;-46
2021/10/07 07:24:51;;;;;;;23.65;15.07;;;;;;;;;;4990539;28;20387;-48
2021/10/07 07:27:16;;;;;;;39.95;13.20;;;;;;;;;;4991831;28;20845;-47
2021/10/07 07:29:42;;;;;;;13.35;11.25;;;;;;;;;;4996477;28;20027;-45
2021/10/07 07:32:07;;;;;;;30.33;12.57;;;;;;;;;;4981315;28;20022;-45
2021/10/07 07:34:32;;;;;;;20.80;9.85;;;;;;;;;;4984721;28;20510;-43
2021/10/07 07:36:58;;;;;;;13.93;9.57;;;;;;;;;;4986925;28;20030;-49
2021/10/07 07:39:23;;;;;;;23.60;9.82;;;;;;;;;;4992731;28;20070;-45
2021/10/07 07:41:48;;;;;;;19.75;9.70;;;;;;;;;;4989208;28;20026;-53
2021/10/07 07:44:14;;;;;;;16.85;6.78;;;;;;;;;;4994301;28;20046;-48
2021/10/07 07:46:39;;;;;;;12.13;7.60;;;;;;;;;;4990236;28;20127;-48
2021/10/07 07:49:05;;;;;;;26.20;11.27;;;;;;;;;;4990842;28;21292;-50
2021/10/07 07:51:33;;;;;;;34.22;8.98;;;;;;;;;;4983151;28;20493;-46
2021/10/07 07:53:58;;;;;;;19.10;7.22;;;;;;;;;;4981383;28;20448;-51
2021/10/07 07:56:24;;;;;;;36.38;14.18;;;;;;;;;;4990564;28;20115;-51
2021/10/07 07:58:49;;;;;;;23.50;12.38;;;;;;;;;;4987661;28;20030;-49
2021/10/07 08:01:14;;;;;;;23.67;11.98;;;;;;;;;;4990012;28;20022;-50
2021/10/07 08:03:40;;;;;;;107.70;82.50;;;;;;;;;;4975289;28;20377;-50
2021/10/07 08:06:05;;;;;;;245.18;186.75;;;;;;;;;;4985733;28;20113;-49
2021/10/07 08:08:30;;;;;;;298.98;227.48;;;;;;;;;;4984254;28;20077;-44
2021/10/07 08:10:56;;;;;;;255.27;195.40;;;;;;;;;;4985265;28;20111;-48
2021/10/07 08:13:21;;;;;;;164.68;117.20;;;;;;;;;;4987257;28;20093;-47
2021/10/07 08:15:48;;;;;;;226.13;184.32;;;;;;;;;;4991963;28;20122;-49
2021/10/07 08:18:14;;;;;;;223.88;176.05;;;;;;;;;;4987527;28;20062;-49
2021/10/07 08:20:40;;;;;;;160.63;129.98;;;;;;;;;;4986633;28;20200;-54
2021/10/07 08:23:06;;;;;;;71.45;50.33;;;;;;;;;;4986604;28;20134;-48
2021/10/07 08:25:31;;;;;;;44.88;36.50;;;;;;;;;;4992048;28;20042;-50
2021/10/07 08:27:57;;;;;;;25.05;21.17;;;;;;;;;;4986806;28;20045;-52
2021/10/07 08:30:22;;;;;;;52.17;31.20;;;;;;;;;;4985149;28;20342;-50
2021/10/07 08:32:47;;;;;;;23.65;18.10;;;;;;;;;;4986933;28;20156;-51
2021/10/07 08:35:13;;;;;;;25.02;11.77;;;;;;;;;;4985474;28;20474;-53
2021/10/07 08:37:38;;;;;;;12.43;8.32;;;;;;;;;;4988433;28;20415;-49
2021/10/07 08:40:05;;;;;;;14.07;3.58;;;;;;;;;;4989835;28;20121;-52
2021/10/07 08:42:31;;;;;;;10.35;8.20;;;;;;;;;;4987603;28;20022;-47
2021/10/07 08:44:56;;;;;;;9.73;3.50;;;;;;;;;;4992703;28;20525;-50
2021/10/07 08:47:22;;;;;;;12.52;6.63;;;;;;;;;;4984008;28;20029;-52
2021/10/07 08:49:50;;;;;;;8.57;7.45;;;;;;;;;;4985554;28;20516;-52
2021/10/07 08:52:16;;;;;;;10.45;7.93;;;;;;;;;;4989258;28;20030;-53
2021/10/07 08:54:42;;;;;;;30.40;20.98;;;;;;;;;;4986784;28;20033;-50
2021/10/07 08:57:07;;;;;;;8.57;7.60;;;;;;;;;;4981181;28;20034;-52
2021/10/07 08:59:35;;;;;;;18.88;9.52;;;;;;;;;;4986899;28;20022;-51
2021/10/07 09:02:04;;;;;;;64.88;42.00;;;;;;;;;;4987737;28;20113;-52
2021/10/07 09:04:30;;;;;;;22.17;12.55;;;;;;;;;;4986373;28;20023;-52
2021/10/07 09:06:58;;;;;;;24.25;6.93;;;;;;;;;;4983286;28;20657;-49
2021/10/07 09:09:24;;;;;;;14.00;4.40;;;;;;;;;;4984813;28;20037;-50
2021/10/07 09:11:54;;;;;;;8.25;6.90;;;;;;;;;;4986780;28;20133;-49
2021/10/07 09:14:24;;;;;;;8.45;5.38;;;;;;;;;;4990034;28;20026;-50
2021/10/07 09:16:50;;;;;;;12.05;6.05;;;;;;;;;;4990557;28;20029;-47
2021/10/07 09:19:23;;;;;;;14.25;4.13;;;;;;;;;;4989623;28;20031;-53
2021/10/07 09:21:49;;;;;;;7.05;3.35;;;;;;;;;;4991750;28;20034;-54
2021/10/07 09:24:35;;;;;;;12.27;4.60;;;;;;;;;;4980883;28;20471;-55
2021/10/07 09:27:07;;;;;;;7.88;5.88;;;;;;;;;;4986333;28;20667;-53
2021/10/07 09:29:34;;;;;;;11.15;5.38;;;;;;;;;;4991860;28;20049;-52
2021/10/07 09:32:00;;;;;;;5.47;1.70;;;;;;;;;;4987165;28;20022;-50
2021/10/07 09:34:36;;;;;;;14.27;5.82;;;;;;;;;;4986379;28;20170;-52
2021/10/07 09:37:01;;;;;;;13.73;3.40;;;;;;;;;;4992757;28;20025;-50
2021/10/07 09:39:31;;;;;;;2.53;1.52;;;;;;;;;;4991907;28;20114;-52
2021/10/07 09:42:04;;;;;;;11.27;5.83;;;;;;;;;;4990840;28;20100;-50
2021/10/07 09:44:29;;;;;;;15.77;5.63;;;;;;;;;;4989904;28;20058;-52
2021/10/07 09:46:55;;;;;;;11.77;9.13;;;;;;;;;;4995679;28;20031;-48
2021/10/07 09:49:40;;;;;;;6.90;1.77;;;;;;;;;;4991143;28;20071;-52
2021/10/07 09:52:05;;;;;;;15.30;13.18;;;;;;;;;;4989202;28;20482;-49
2021/10/07 09:54:35;;;;;;;2.33;1.83;;;;;;;;;;4994126;28;20026;-50
2021/10/07 09:57:02;;;;;;;5.30;2.72;;;;;;;;;;4990660;28;20031;-51
2021/10/07 09:59:29;;;;;;;5.10;3.28;;;;;;;;;;4990297;28;20117;-46
2021/10/07 10:01:55;;;;;;;9.93;6.05;;;;;;;;;;4995641;28;20463;-46
2021/10/07 10:04:21;;;;;;;9.80;4.63;;;;;;;;;;4989235;28;20121;-48
2021/10/07 10:06:46;;;;;;;8.63;5.07;;;;;;;;;;4992098;28;20108;-49
2021/10/07 10:09:12;;;;;;;16.98;4.82;;;;;;;;;;4994768;28;20385;-48
2021/10/07 10:11:38;;;;;;;3.97;2.65;;;;;;;;;;4992676;28;20019;-48
2021/10/07 10:14:04;;;;;;;6.00;2.70;;;;;;;;;;4993572;28;20102;-50
2021/10/07 10:16:29;;;;;;;4.28;2.15;;;;;;;;;;4993580;28;20073;-48
2021/10/07 10:19:02;;;;;;;4.40;2.72;;;;;;;;;;4995038;28;20038;-47
2021/10/07 10:21:32;;;;;;;8.13;2.53;;;;;;;;;;4988407;28;20018;-48
2021/10/07 10:23:58;;;;;;;6.18;2.95;;;;;;;;;;4988116;28;20029;-45
2021/10/07 10:26:24;;;;;;;8.85;2.28;;;;;;;;;;4988117;28;20498;-48
2021/10/07 10:28:51;;;;;;;5.43;3.72;;;;;;;;;;4990054;28;20026;-46
2021/10/07 10:31:19;;;;;;;10.40;3.03;;;;;;;;;;4989015;28;20029;-44
2021/10/07 10:33:48;;;;;;;7.93;4.13;;;;;;;;;;4993862;28;20341;-43
2021/10/07 10:36:23;;;;;;;9.13;5.07;;;;;;;;;;4985691;28;20106;-44
2021/10/07 10:39:06;;;;;;;13.27;5.70;;;;;;;;;;4992301;28;20105;-46
2021/10/07 10:41:47;;;;;;;9.57;3.35;;;;;;;;;;4991348;28;20040;-48
2021/10/07 10:44:27;;;;;;;9.00;3.55;;;;;;;;;;4996352;28;20054;-45
2021/10/07 10:47:05;;;;;;;7.72;1.98;;;;;;;;;;4979418;28;20034;-43
2021/10/07 10:49:43;;;;;;;13.50;2.28;;;;;;;;;;4994904;28;20443;-46
2021/10/07 10:52:13;;;;;;;6.40;3.03;;;;;;;;;;4987794;28;20077;-44
2021/10/07 10:54:45;;;;;;;6.95;2.80;;;;;;;;;;4992244;28;20030;-43
2021/10/07 10:57:29;;;;;;;7.22;2.30;;;;;;;;;;4987049;28;20034;-45
2021/10/07 11:00:13;;;;;;;4.28;3.88;;;;;;;;;;4992403;28;20498;-46
2021/10/07 11:02:45;;;;;;;15.80;4.10;;;;;;;;;;4986063;28;20021;-43
2021/10/07 11:05:21;;;;;;;5.15;2.60;;;;;;;;;;4985012;28;20034;-48
2021/10/07 11:07:48;;;;;;;6.07;3.35;;;;;;;;;;4991686;28;20022;-46
2021/10/07 11:10:17;;;;;;;5.10;3.30;;;;;;;;;;4984642;28;20014;-47
2021/10/07 11:12:45;;;;;;;12.70;4.55;;;;;;;;;;4993698;28;20714;-42
2021/10/07 11:15:11;;;;;;;12.95;3.05;;;;;;;;;;4987679;28;20895;-45
2021/10/07 11:17:40;;;;;;;13.48;2.53;;;;;;;;;;4985114;28;20029;-47
2021/10/07 11:20:06;;;;;;;6.07;3.05;;;;;;;;;;4991352;28;20029;-43
2021/10/07 11:22:31;;;;;;;16.17;2.50;;;;;;;;;;4985742;28;20026;-44
2021/10/07 11:24:58;;;;;;;8.43;2.78;;;;;;;;;;4994695;28;20494;-47
2021/10/07 11:27:38;;;;;;;3.65;2.80;;;;;;;;;;4991939;28;20079;-48
2021/10/07 11:30:05;;;;;;;14.20;3.10;;;;;;;;;;4991653;28;20072;-45
2021/10/07 11:32:31;;;;;;;5.88;3.20;;;;;;;;;;4988351;28;20317;-43
2021/10/07 11:34:57;;;;;;;7.30;3.35;;;;;;;;;;4987586;28;20520;-45
2021/10/07 11:37:23;;;;;;;14.63;2.67;;;;;;;;;;4991202;28;20030;-42
2021/10/07 11:39:48;;;;;;;19.08;3.60;;;;;;;;;;4989695;28;20774;-46
2021/10/07 11:42:34;;;;;;;7.63;2.75;;;;;;;;;;4987824;28;20098;-45
2021/10/07 11:44:59;;;;;;;6.13;2.17;;;;;;;;;;4983701;28;20091;-46
2021/10/07 11:47:29;;;;;;;15.57;3.28;;;;;;;;;;4989653;28;20084;-43
2021/10/07 11:50:08;;;;;;;6.78;3.10;;;;;;;;;;4992412;28;20042;-45
2021/10/07 11:52:36;;;;;;;6.05;2.60;;;;;;;;;;4990992;28;20625;-43
2021/10/07 11:55:01;;;;;;;4.22;2.28;;;;;;;;;;4992185;28;20042;-43
2021/10/07 11:57:26;;;;;;;6.43;3.03;;;;;;;;;;4993361;28;20478;-42
2021/10/07 11:59:52;;;;;;;8.38;2.45;;;;;;;;;;4988442;28;20456;-44
2021/10/07 12:02:17;;;;;;;10.57;3.65;;;;;;;;;;4992229;28;20504;-43
2021/10/07 12:04:42;;;;;;;12.07;3.78;;;;;;;;;;4988656;28;20026;-44
2021/10/07 12:07:14;;;;;;;6.78;2.72;;;;;;;;;;4987515;28;20041;-45
2021/10/07 12:09:43;;;;;;;3.88;1.90;;;;;;;;;;4993662;28;20069;-43
2021/10/07 12:12:09;;;;;;;4.13;2.65;;;;;;;;;;4992619;28;20457;-46
2021/10/07 12:14:34;;;;;;;2.22;1.63;;;;;;;;;;4992913;28;20026;-46
2021/10/07 12:16:59;;;;;;;5.55;2.25;;;;;;;;;;4987527;28;20069;-44
2021/10/07 12:19:27;;;;;;;6.32;2.67;;;;;;;;;;4984379;28;20038;-43
2021/10/07 12:21:57;;;;;;;9.43;2.28;;;;;;;;;;4993993;28;20026;-47
2021/10/07 12:24:23;;;;;;;9.57;1.70;;;;;;;;;;4985001;28;20018;-45
2021/10/07 12:26:56;;;;;;;4.03;1.98;;;;;;;;;;4983542;28;20022;-41
2021/10/07 12:29:24;;;;;;;12.68;1.70;;;;;;;;;;4987481;28;20507;-43
2021/10/07 12:31:57;;;;;;;12.50;2.50;;;;;;;;;;4991132;28;20084;-53
2021/10/07 12:34:41;;;;;;;11.70;2.42;;;;;;;;;;4989751;28;20068;-50
2021/10/07 12:37:12;;;;;;;6.45;1.92;;;;;;;;;;4984675;28;20045;-45
2021/10/07 12:39:38;;;;;;;10.93;2.72;;;;;;;;;;4987471;28;20018;-49
2021/10/07 12:42:09;;;;;;;7.20;2.15;;;;;;;;;;4988546;28;20034;-48
2021/10/07 12:44:36;;;;;;;10.07;2.72;;;;;;;;;;4992567;28;20760;-47
2021/10/07 12:47:08;;;;;;;6.28;1.58;;;;;;;;;;4986564;28;20083;-49
2021/10/07 12:49:37;;;;;;;3.75;1.55;;;;;;;;;;4990238;28;20019;-50
2021/10/07 12:52:24;;;;;;;14.27;5.35;;;;;;;;;;4982031;28;20033;-47
2021/10/07 12:54:50;;;;;;;8.18;2.53;;;;;;;;;;4993269;28;20028;-48
2021/10/07 12:57:48;;;;;;;3.03;1.30;;;;;;;;;;4988677;28;20667;-44
2021/10/07 13:00:19;;;;;;;2.08;1.58;;;;;;;;;;4999122;28;20109;-47
2021/10/07 13:02:45;;;;;;;1.55;1.10;;;;;;;;;;4980914;28;20015;-48
2021/10/07 13:05:18;;;;;;;5.60;1.58;;;;;;;;;;4984386;28;20079;-52
2021/10/07 13:07:46;;;;;;;8.88;1.85;;;;;;;;;;4989727;28;20022;-47
2021/10/07 13:10:12;;;;;;;4.93;1.77;;;;;;;;;;4991685;28;20103;-47
2021/10/07 13:12:38;;;;;;;4.60;1.73;;;;;;;;;;4989139;28;20026;-44
2021/10/07 13:15:03;;;;;;;3.47;1.30;;;;;;;;;;4988456;28;20026;-45
2021/10/07 13:17:29;;;;;;;7.18;1.70;;;;;;;;;;4987359;28;20026;-45
2021/10/07 13:19:54;;;;;;;7.22;1.90;;;;;;;;;;4988293;28;20032;-42
2021/10/07 13:22:19;;;;;;;4.90;1.88;;;;;;;;;;4985985;28;20103;-44
2021/10/07 13:24:44;;;;;;;2.63;1.10;;;;;;;;;;4982657;28;20309;-43
2021/10/07 13:27:11;;;;;;;2.33;0.68;;;;;;;;;;4988001;28;20544;-45
2021/10/07 13:29:37;;;;;;;2.47;0.93;;;;;;;;;;4986776;28;20031;-45
2021/10/07 13:32:02;;;;;;;2.20;1.70;;;;;;;;;;4991461;28;20049;-45
2021/10/07 13:34:28;;;;;;;10.00;2.53;;;;;;;;;;4994749;28;20510;-46
2021/10/07 13:36:53;;;;;;;5.28;2.03;;;;;;;;;;4987558;28;20026;-47
2021/10/07 13:39:20;;;;;;;12.80;3.85;;;;;;;;;;4994488;28;20080;-46
2021/10/07 13:41:45;;;;;;;23.90;2.13;;;;;;;;;;4986630;28;20077;-47
2021/10/07 13:44:10;;;;;;;2.45;1.20;;;;;;;;;;4991786;28;20168;-49
2021/10/07 13:46:36;;;;;;;3.70;1.75;;;;;;;;;;4987452;28;20483;-48
2021/10/07 13:49:02;;;;;;;2.92;1.50;;;;;;;;;;4993014;28;20030;-49
2021/10/07 13:51:27;;;;;;;7.00;4.82;;;;;;;;;;4985351;28;20441;-48
2021/10/07 13:53:53;;;;;;;18.77;7.68;;;;;;;;;;4989536;28;20534;-49
2021/10/07 13:56:18;;;;;;;4.72;1.95;;;;;;;;;;4991721;28;20494;-49
2021/10/07 13:58:46;;;;;;;1.73;0.60;;;;;;;;;;4984531;28;20131;-47
2021/10/07 14:01:12;;;;;;;5.63;1.27;;;;;;;;;;4991180;28;20110;-46
2021/10/07 14:03:37;;;;;;;3.45;1.80;;;;;;;;;;4989726;28;20488;-47
2021/10/07 14:06:03;;;;;;;1.85;1.25;;;;;;;;;;4993112;28;20030;-47
2021/10/07 14:08:29;;;;;;;3.10;0.70;;;;;;;;;;4994575;28;20039;-44
2021/10/07 14:10:55;;;;;;;4.15;1.00;;;;;;;;;;4986124;28;20023;-50
2021/10/07 14:13:20;;;;;;;3.05;0.88;;;;;;;;;;4990004;28;20137;-46
2021/10/07 14:15:46;;;;;;;1.50;0.85;;;;;;;;;;4986877;28;20035;-45
2021/10/07 14:18:11;;;;;;;4.82;1.50;;;;;;;;;;4994741;28;20022;-46
2021/10/07 14:20:37;;;;;;;4.03;1.38;;;;;;;;;;4990726;28;20752;-44
2021/10/07 14:23:02;;;;;;;2.75;0.68;;;;;;;;;;4989450;28;20045;-47
2021/10/07 14:25:27;;;;;;;5.50;2.35;;;;;;;;;;4987800;28;20030;-43
2021/10/07 14:27:53;;;;;;;0.38;0.32;;;;;;;;;;4992410;28;20071;-47
2021/10/07 14:30:18;;;;;;;1.35;0.88;;;;;;;;;;4995157;28;20033;-44
2021/10/07 14:32:44;;;;;;;0.50;0.40;;;;;;;;;;4986379;28;20588;-44
2021/10/07 14:35:09;;;;;;;2.42;1.15;;;;;;;;;;4992286;28;20018;-48
2021/10/07 14:37:36;;;;;;;1.85;0.80;;;;;;;;;;4994754;28;20468;-48
2021/10/07 14:40:02;;;;;;;3.05;1.05;;;;;;;;;;4992556;28;20455;-46